sensor_id;sensor_type;location;lat;lon;timestamp;P1;durP1;ratioP1;P2;durP2;ratioP2
15340;SDS011;7770;52.158;5.372;2023-09-30T00:01:46;17.87;;;11.23;;
15340;SDS011;7770;52.158;5.372;2023-09-30T00:04:33;16.70;;;10.33;;
15340;SDS011;7770;52.158;5.372;2023-09-30T00:07:19;15.70;;;10.70;;
15340;SDS011;7770;52.158;5.372;2023-09-30T00:10:05;21.57;;;11.10;;
15340;SDS011;7770;52.158;5.372;2023-09-30T00:12:52;18.50;;;11.60;;
15340;SDS011;7770;52.158;5.372;2023-09-30T00:15:38;17.73;;;11.13;;
15340;SDS011;7770;52.158;5.372;2023-09-30T00:18:24;16.47;;;10.83;;
15340;SDS011;7770;52.158;5.372;2023-09-30T00:21:10;17.37;;;10.83;;
15340;SDS011;7770;52.158;5.372;2023-09-30T00:23:56;15.53;;;10.77;;
15340;SDS011;7770;52.158;5.372;2023-09-30T00:26:43;20.20;;;10.17;;
15340;SDS011;7770;52.158;5.372;2023-09-30T00:29:29;17.40;;;10.80;;
15340;SDS011;7770;52.158;5.372;2023-09-30T00:32:15;15.83;;;10.83;;
15340;SDS011;7770;52.158;5.372;2023-09-30T00:35:01;20.37;;;10.53;;
15340;SDS011;7770;52.158;5.372;2023-09-30T00:37:48;15.17;;;10.60;;
15340;SDS011;7770;52.158;5.372;2023-09-30T00:40:34;18.40;;;10.27;;
15340;SDS011;7770;52.158;5.372;2023-09-30T00:43:20;16.90;;;11.17;;
15340;SDS011;7770;52.158;5.372;2023-09-30T00:46:14;16.80;;;10.53;;
15340;SDS011;7770;52.158;5.372;2023-09-30T00:49:12;16.33;;;10.43;;
15340;SDS011;7770;52.158;5.372;2023-09-30T00:51:59;17.73;;;11.00;;
15340;SDS011;7770;52.158;5.372;2023-09-30T00:54:48;18.03;;;11.10;;
15340;SDS011;7770;52.158;5.372;2023-09-30T00:57:35;17.67;;;11.63;;
15340;SDS011;7770;52.158;5.372;2023-09-30T01:00:23;17.43;;;12.87;;
15340;SDS011;7770;52.158;5.372;2023-09-30T01:03:10;18.60;;;12.33;;
15340;SDS011;7770;52.158;5.372;2023-09-30T01:05:57;20.23;;;12.93;;
15340;SDS011;7770;52.158;5.372;2023-09-30T01:08:43;19.10;;;12.37;;
15340;SDS011;7770;52.158;5.372;2023-09-30T01:11:30;17.83;;;12.27;;
15340;SDS011;7770;52.158;5.372;2023-09-30T01:17:24;20.77;;;13.23;;
15340;SDS011;7770;52.158;5.372;2023-09-30T01:20:10;18.57;;;12.67;;
15340;SDS011;7770;52.158;5.372;2023-09-30T01:23:01;18.60;;;14.03;;
15340;SDS011;7770;52.158;5.372;2023-09-30T01:25:48;20.20;;;15.10;;
15340;SDS011;7770;52.158;5.372;2023-09-30T01:28:35;26.90;;;14.83;;
15340;SDS011;7770;52.158;5.372;2023-09-30T01:31:21;22.57;;;15.13;;
15340;SDS011;7770;52.158;5.372;2023-09-30T01:34:07;21.80;;;15.47;;
15340;SDS011;7770;52.158;5.372;2023-09-30T01:36:53;18.70;;;14.93;;
15340;SDS011;7770;52.158;5.372;2023-09-30T01:39:39;21.53;;;15.23;;
15340;SDS011;7770;52.158;5.372;2023-09-30T01:42:25;22.93;;;15.83;;
15340;SDS011;7770;52.158;5.372;2023-09-30T01:45:11;27.13;;;16.13;;
15340;SDS011;7770;52.158;5.372;2023-09-30T01:47:58;22.03;;;15.27;;
15340;SDS011;7770;52.158;5.372;2023-09-30T01:50:44;20.03;;;15.10;;
15340;SDS011;7770;52.158;5.372;2023-09-30T01:53:30;21.70;;;16.93;;
15340;SDS011;7770;52.158;5.372;2023-09-30T01:56:16;25.67;;;16.37;;
15340;SDS011;7770;52.158;5.372;2023-09-30T01:59:02;24.10;;;16.37;;
15340;SDS011;7770;52.158;5.372;2023-09-30T02:01:48;26.53;;;16.73;;
15340;SDS011;7770;52.158;5.372;2023-09-30T02:04:34;22.07;;;15.77;;
15340;SDS011;7770;52.158;5.372;2023-09-30T02:07:20;23.77;;;15.93;;
15340;SDS011;7770;52.158;5.372;2023-09-30T02:10:07;20.17;;;15.43;;
15340;SDS011;7770;52.158;5.372;2023-09-30T02:12:53;27.07;;;15.87;;
15340;SDS011;7770;52.158;5.372;2023-09-30T02:15:39;23.60;;;16.10;;
15340;SDS011;7770;52.158;5.372;2023-09-30T02:18:26;23.03;;;16.07;;
15340;SDS011;7770;52.158;5.372;2023-09-30T02:21:13;23.40;;;16.47;;
15340;SDS011;7770;52.158;5.372;2023-09-30T02:23:59;23.63;;;16.87;;
15340;SDS011;7770;52.158;5.372;2023-09-30T02:26:45;21.30;;;16.00;;
15340;SDS011;7770;52.158;5.372;2023-09-30T02:29:31;23.33;;;15.90;;
15340;SDS011;7770;52.158;5.372;2023-09-30T02:32:17;23.03;;;17.53;;
15340;SDS011;7770;52.158;5.372;2023-09-30T02:35:03;28.50;;;18.50;;
15340;SDS011;7770;52.158;5.372;2023-09-30T02:37:52;22.37;;;17.63;;
15340;SDS011;7770;52.158;5.372;2023-09-30T02:40:39;23.83;;;17.97;;
15340;SDS011;7770;52.158;5.372;2023-09-30T02:43:27;22.57;;;18.20;;
15340;SDS011;7770;52.158;5.372;2023-09-30T02:46:13;25.07;;;18.60;;
15340;SDS011;7770;52.158;5.372;2023-09-30T02:49:02;24.73;;;18.97;;
15340;SDS011;7770;52.158;5.372;2023-09-30T02:51:48;26.67;;;19.37;;
15340;SDS011;7770;52.158;5.372;2023-09-30T02:54:35;23.50;;;19.07;;
15340;SDS011;7770;52.158;5.372;2023-09-30T02:57:21;25.13;;;19.57;;
15340;SDS011;7770;52.158;5.372;2023-09-30T03:00:08;27.80;;;20.63;;
15340;SDS011;7770;52.158;5.372;2023-09-30T03:03:18;30.43;;;20.43;;
15340;SDS011;7770;52.158;5.372;2023-09-30T03:06:04;27.07;;;20.90;;
15340;SDS011;7770;52.158;5.372;2023-09-30T03:08:51;29.80;;;21.70;;
15340;SDS011;7770;52.158;5.372;2023-09-30T03:11:38;26.67;;;21.37;;
15340;SDS011;7770;52.158;5.372;2023-09-30T03:14:24;26.13;;;21.83;;
15340;SDS011;7770;52.158;5.372;2023-09-30T03:17:10;31.40;;;22.57;;
15340;SDS011;7770;52.158;5.372;2023-09-30T03:19:56;26.30;;;22.30;;
15340;SDS011;7770;52.158;5.372;2023-09-30T03:22:44;27.70;;;21.63;;
15340;SDS011;7770;52.158;5.372;2023-09-30T03:25:32;28.70;;;22.67;;
15340;SDS011;7770;52.158;5.372;2023-09-30T03:28:18;28.67;;;23.13;;
15340;SDS011;7770;52.158;5.372;2023-09-30T03:31:04;28.20;;;23.57;;
15340;SDS011;7770;52.158;5.372;2023-09-30T03:33:51;30.23;;;23.40;;
15340;SDS011;7770;52.158;5.372;2023-09-30T03:36:40;28.60;;;24.07;;
15340;SDS011;7770;52.158;5.372;2023-09-30T03:39:26;35.50;;;25.60;;
15340;SDS011;7770;52.158;5.372;2023-09-30T03:42:12;31.37;;;24.47;;
15340;SDS011;7770;52.158;5.372;2023-09-30T03:44:59;34.30;;;25.40;;
15340;SDS011;7770;52.158;5.372;2023-09-30T03:47:45;35.33;;;26.97;;
15340;SDS011;7770;52.158;5.372;2023-09-30T03:50:33;33.83;;;26.63;;
15340;SDS011;7770;52.158;5.372;2023-09-30T03:53:19;34.67;;;26.63;;
15340;SDS011;7770;52.158;5.372;2023-09-30T03:56:05;32.73;;;26.17;;
15340;SDS011;7770;52.158;5.372;2023-09-30T03:58:52;31.37;;;27.97;;
15340;SDS011;7770;52.158;5.372;2023-09-30T04:01:38;37.13;;;28.37;;
15340;SDS011;7770;52.158;5.372;2023-09-30T04:04:25;35.47;;;28.83;;
15340;SDS011;7770;52.158;5.372;2023-09-30T04:07:11;33.53;;;28.47;;
15340;SDS011;7770;52.158;5.372;2023-09-30T04:10:05;42.83;;;30.10;;
15340;SDS011;7770;52.158;5.372;2023-09-30T04:12:51;36.43;;;29.97;;
15340;SDS011;7770;52.158;5.372;2023-09-30T04:15:37;37.27;;;31.23;;
15340;SDS011;7770;52.158;5.372;2023-09-30T04:18:24;39.97;;;30.87;;
15340;SDS011;7770;52.158;5.372;2023-09-30T04:21:11;36.77;;;30.57;;
15340;SDS011;7770;52.158;5.372;2023-09-30T04:23:57;37.83;;;32.00;;
15340;SDS011;7770;52.158;5.372;2023-09-30T04:26:43;37.70;;;33.13;;
15340;SDS011;7770;52.158;5.372;2023-09-30T04:29:30;36.10;;;31.17;;
15340;SDS011;7770;52.158;5.372;2023-09-30T04:32:16;37.60;;;32.33;;
15340;SDS011;7770;52.158;5.372;2023-09-30T04:35:03;43.30;;;32.77;;
15340;SDS011;7770;52.158;5.372;2023-09-30T04:37:55;38.03;;;31.97;;
15340;SDS011;7770;52.158;5.372;2023-09-30T04:40:46;38.87;;;32.57;;
15340;SDS011;7770;52.158;5.372;2023-09-30T04:43:36;37.07;;;32.50;;
15340;SDS011;7770;52.158;5.372;2023-09-30T04:46:25;45.00;;;33.70;;
15340;SDS011;7770;52.158;5.372;2023-09-30T04:49:14;38.43;;;32.60;;
15340;SDS011;7770;52.158;5.372;2023-09-30T04:52:00;46.13;;;34.17;;
15340;SDS011;7770;52.158;5.372;2023-09-30T04:54:46;40.67;;;33.73;;
15340;SDS011;7770;52.158;5.372;2023-09-30T04:57:32;43.13;;;35.70;;
15340;SDS011;7770;52.158;5.372;2023-09-30T05:00:19;45.33;;;36.80;;
15340;SDS011;7770;52.158;5.372;2023-09-30T05:03:10;46.73;;;35.30;;
15340;SDS011;7770;52.158;5.372;2023-09-30T05:05:56;49.93;;;35.63;;
15340;SDS011;7770;52.158;5.372;2023-09-30T05:08:43;41.23;;;36.03;;
15340;SDS011;7770;52.158;5.372;2023-09-30T05:11:29;44.03;;;36.50;;
15340;SDS011;7770;52.158;5.372;2023-09-30T05:14:16;43.27;;;36.23;;
15340;SDS011;7770;52.158;5.372;2023-09-30T05:17:02;44.37;;;37.03;;
15340;SDS011;7770;52.158;5.372;2023-09-30T05:19:50;45.43;;;37.17;;
15340;SDS011;7770;52.158;5.372;2023-09-30T05:22:36;44.90;;;37.10;;
15340;SDS011;7770;52.158;5.372;2023-09-30T05:25:22;46.77;;;38.37;;
15340;SDS011;7770;52.158;5.372;2023-09-30T05:28:11;48.70;;;38.93;;
15340;SDS011;7770;52.158;5.372;2023-09-30T05:30:58;47.53;;;39.07;;
15340;SDS011;7770;52.158;5.372;2023-09-30T05:33:44;48.17;;;38.93;;
15340;SDS011;7770;52.158;5.372;2023-09-30T05:36:30;48.13;;;39.63;;
15340;SDS011;7770;52.158;5.372;2023-09-30T05:39:16;48.20;;;39.27;;
15340;SDS011;7770;52.158;5.372;2023-09-30T05:42:05;48.93;;;39.90;;
15340;SDS011;7770;52.158;5.372;2023-09-30T05:44:52;53.73;;;41.37;;
15340;SDS011;7770;52.158;5.372;2023-09-30T05:47:38;51.80;;;43.13;;
15340;SDS011;7770;52.158;5.372;2023-09-30T05:50:25;56.90;;;42.60;;
15340;SDS011;7770;52.158;5.372;2023-09-30T05:53:11;56.13;;;43.73;;
15340;SDS011;7770;52.158;5.372;2023-09-30T05:55:58;52.13;;;43.53;;
15340;SDS011;7770;52.158;5.372;2023-09-30T05:58:45;61.33;;;45.93;;
15340;SDS011;7770;52.158;5.372;2023-09-30T06:01:31;52.70;;;43.83;;
15340;SDS011;7770;52.158;5.372;2023-09-30T06:04:18;63.57;;;48.33;;
15340;SDS011;7770;52.158;5.372;2023-09-30T06:07:04;62.17;;;47.40;;
15340;SDS011;7770;52.158;5.372;2023-09-30T06:09:50;59.47;;;46.93;;
15340;SDS011;7770;52.158;5.372;2023-09-30T06:12:36;56.47;;;46.17;;
15340;SDS011;7770;52.158;5.372;2023-09-30T06:15:22;59.53;;;47.67;;
15340;SDS011;7770;52.158;5.372;2023-09-30T06:18:11;56.07;;;47.57;;
15340;SDS011;7770;52.158;5.372;2023-09-30T06:20:58;54.57;;;45.10;;
15340;SDS011;7770;52.158;5.372;2023-09-30T06:23:44;52.60;;;45.63;;
15340;SDS011;7770;52.158;5.372;2023-09-30T06:26:30;53.47;;;44.20;;
15340;SDS011;7770;52.158;5.372;2023-09-30T06:29:16;53.67;;;45.07;;
15340;SDS011;7770;52.158;5.372;2023-09-30T06:32:02;50.47;;;44.30;;
15340;SDS011;7770;52.158;5.372;2023-09-30T06:34:48;54.37;;;44.43;;
15340;SDS011;7770;52.158;5.372;2023-09-30T06:37:34;50.03;;;42.93;;
15340;SDS011;7770;52.158;5.372;2023-09-30T06:40:20;46.47;;;40.93;;
15340;SDS011;7770;52.158;5.372;2023-09-30T06:43:07;45.97;;;40.93;;
15340;SDS011;7770;52.158;5.372;2023-09-30T06:45:53;43.70;;;39.00;;
15340;SDS011;7770;52.158;5.372;2023-09-30T06:48:39;44.00;;;37.37;;
15340;SDS011;7770;52.158;5.372;2023-09-30T06:51:25;39.70;;;35.43;;
15340;SDS011;7770;52.158;5.372;2023-09-30T06:54:12;39.63;;;33.97;;
15340;SDS011;7770;52.158;5.372;2023-09-30T06:56:57;37.23;;;33.23;;
15340;SDS011;7770;52.158;5.372;2023-09-30T06:59:43;36.37;;;32.43;;
15340;SDS011;7770;52.158;5.372;2023-09-30T07:02:29;33.90;;;30.40;;
15340;SDS011;7770;52.158;5.372;2023-09-30T07:05:15;38.30;;;31.30;;
15340;SDS011;7770;52.158;5.372;2023-09-30T07:08:03;33.10;;;29.53;;
15340;SDS011;7770;52.158;5.372;2023-09-30T07:10:49;34.77;;;30.10;;
15340;SDS011;7770;52.158;5.372;2023-09-30T07:13:35;32.30;;;28.80;;
15340;SDS011;7770;52.158;5.372;2023-09-30T07:16:21;33.13;;;29.53;;
15340;SDS011;7770;52.158;5.372;2023-09-30T07:19:07;32.43;;;29.10;;
15340;SDS011;7770;52.158;5.372;2023-09-30T07:21:53;31.30;;;28.20;;
15340;SDS011;7770;52.158;5.372;2023-09-30T07:24:39;30.33;;;27.00;;
15340;SDS011;7770;52.158;5.372;2023-09-30T07:27:25;31.90;;;26.23;;
15340;SDS011;7770;52.158;5.372;2023-09-30T07:30:12;28.20;;;25.23;;
15340;SDS011;7770;52.158;5.372;2023-09-30T07:33:00;27.10;;;24.20;;
15340;SDS011;7770;52.158;5.372;2023-09-30T07:35:46;25.57;;;22.97;;
15340;SDS011;7770;52.158;5.372;2023-09-30T07:38:32;24.83;;;22.17;;
15340;SDS011;7770;52.158;5.372;2023-09-30T07:41:18;26.20;;;22.57;;
15340;SDS011;7770;52.158;5.372;2023-09-30T07:44:04;22.43;;;19.93;;
15340;SDS011;7770;52.158;5.372;2023-09-30T07:46:50;22.50;;;20.00;;
15340;SDS011;7770;52.158;5.372;2023-09-30T07:49:37;21.83;;;19.10;;
15340;SDS011;7770;52.158;5.372;2023-09-30T07:52:23;21.17;;;18.87;;
15340;SDS011;7770;52.158;5.372;2023-09-30T07:55:11;19.17;;;17.07;;
15340;SDS011;7770;52.158;5.372;2023-09-30T07:57:57;19.40;;;17.20;;
15340;SDS011;7770;52.158;5.372;2023-09-30T08:00:45;19.33;;;15.50;;
15340;SDS011;7770;52.158;5.372;2023-09-30T08:03:31;18.03;;;15.63;;
15340;SDS011;7770;52.158;5.372;2023-09-30T08:06:19;15.90;;;14.20;;
15340;SDS011;7770;52.158;5.372;2023-09-30T08:09:05;16.53;;;13.67;;
15340;SDS011;7770;52.158;5.372;2023-09-30T08:11:56;14.50;;;13.00;;
15340;SDS011;7770;52.158;5.372;2023-09-30T08:14:43;15.97;;;13.67;;
15340;SDS011;7770;52.158;5.372;2023-09-30T08:17:30;15.68;;;12.60;;
15340;SDS011;7770;52.158;5.372;2023-09-30T08:20:16;12.90;;;11.60;;
15340;SDS011;7770;52.158;5.372;2023-09-30T08:23:02;14.70;;;12.15;;
15340;SDS011;7770;52.158;5.372;2023-09-30T08:25:48;13.70;;;12.30;;
15340;SDS011;7770;52.158;5.372;2023-09-30T08:28:34;14.50;;;11.75;;
15340;SDS011;7770;52.158;5.372;2023-09-30T08:31:20;13.55;;;11.60;;
15340;SDS011;7770;52.158;5.372;2023-09-30T08:34:07;12.93;;;11.63;;
15340;SDS011;7770;52.158;5.372;2023-09-30T08:36:53;15.90;;;10.38;;
15340;SDS011;7770;52.158;5.372;2023-09-30T08:39:39;14.80;;;10.57;;
15340;SDS011;7770;52.158;5.372;2023-09-30T08:42:26;11.35;;;9.80;;
15340;SDS011;7770;52.158;5.372;2023-09-30T08:45:18;11.55;;;9.73;;
15340;SDS011;7770;52.158;5.372;2023-09-30T08:48:05;12.45;;;9.82;;
15340;SDS011;7770;52.158;5.372;2023-09-30T08:50:52;13.57;;;10.23;;
15340;SDS011;7770;52.158;5.372;2023-09-30T08:53:39;11.82;;;9.70;;
15340;SDS011;7770;52.158;5.372;2023-09-30T08:56:27;11.95;;;9.70;;
15340;SDS011;7770;52.158;5.372;2023-09-30T08:59:15;11.57;;;8.77;;
15340;SDS011;7770;52.158;5.372;2023-09-30T09:02:02;11.20;;;8.68;;
15340;SDS011;7770;52.158;5.372;2023-09-30T09:04:55;12.07;;;8.93;;
15340;SDS011;7770;52.158;5.372;2023-09-30T09:07:43;11.80;;;9.27;;
15340;SDS011;7770;52.158;5.372;2023-09-30T09:10:29;11.98;;;9.02;;
15340;SDS011;7770;52.158;5.372;2023-09-30T09:13:15;13.05;;;9.40;;
15340;SDS011;7770;52.158;5.372;2023-09-30T09:16:08;9.82;;;8.77;;
15340;SDS011;7770;52.158;5.372;2023-09-30T09:18:54;13.93;;;9.13;;
15340;SDS011;7770;52.158;5.372;2023-09-30T09:21:52;10.20;;;8.93;;
15340;SDS011;7770;52.158;5.372;2023-09-30T09:24:43;133.90;;;18.20;;
15340;SDS011;7770;52.158;5.372;2023-09-30T09:27:33;10.27;;;7.72;;
15340;SDS011;7770;52.158;5.372;2023-09-30T09:30:24;13.68;;;8.48;;
15340;SDS011;7770;52.158;5.372;2023-09-30T09:33:11;9.77;;;7.13;;
15340;SDS011;7770;52.158;5.372;2023-09-30T09:35:57;12.38;;;7.63;;
15340;SDS011;7770;52.158;5.372;2023-09-30T09:38:48;11.32;;;7.43;;
15340;SDS011;7770;52.158;5.372;2023-09-30T09:41:59;10.18;;;6.97;;
15340;SDS011;7770;52.158;5.372;2023-09-30T09:44:46;8.55;;;6.55;;
15340;SDS011;7770;52.158;5.372;2023-09-30T09:47:33;11.60;;;8.63;;
15340;SDS011;7770;52.158;5.372;2023-09-30T09:50:19;12.15;;;7.90;;
15340;SDS011;7770;52.158;5.372;2023-09-30T09:53:07;11.18;;;7.80;;
15340;SDS011;7770;52.158;5.372;2023-09-30T09:55:54;10.27;;;7.23;;
15340;SDS011;7770;52.158;5.372;2023-09-30T09:58:44;15.10;;;8.63;;
15340;SDS011;7770;52.158;5.372;2023-09-30T10:01:33;11.57;;;7.85;;
15340;SDS011;7770;52.158;5.372;2023-09-30T10:04:20;9.73;;;7.90;;
15340;SDS011;7770;52.158;5.372;2023-09-30T10:07:06;12.85;;;8.50;;
15340;SDS011;7770;52.158;5.372;2023-09-30T10:09:57;14.32;;;7.13;;
15340;SDS011;7770;52.158;5.372;2023-09-30T10:12:46;10.43;;;7.57;;
15340;SDS011;7770;52.158;5.372;2023-09-30T10:18:20;11.57;;;6.82;;
15340;SDS011;7770;52.158;5.372;2023-09-30T10:21:08;9.90;;;6.95;;
15340;SDS011;7770;52.158;5.372;2023-09-30T10:24:27;8.32;;;5.82;;
15340;SDS011;7770;52.158;5.372;2023-09-30T10:30:11;9.45;;;7.00;;
15340;SDS011;7770;52.158;5.372;2023-09-30T10:35:45;10.63;;;7.03;;
15340;SDS011;7770;52.158;5.372;2023-09-30T10:41:48;9.63;;;6.82;;
15340;SDS011;7770;52.158;5.372;2023-09-30T10:50:48;9.48;;;6.60;;
15340;SDS011;7770;52.158;5.372;2023-09-30T10:53:40;10.90;;;6.50;;
15340;SDS011;7770;52.158;5.372;2023-09-30T10:56:37;10.48;;;6.65;;
15340;SDS011;7770;52.158;5.372;2023-09-30T10:59:23;9.57;;;6.40;;
15340;SDS011;7770;52.158;5.372;2023-09-30T11:02:18;10.77;;;5.85;;
15340;SDS011;7770;52.158;5.372;2023-09-30T11:05:09;9.45;;;5.82;;
15340;SDS011;7770;52.158;5.372;2023-09-30T11:07:56;8.50;;;5.57;;
15340;SDS011;7770;52.158;5.372;2023-09-30T11:10:50;9.18;;;5.28;;
15340;SDS011;7770;52.158;5.372;2023-09-30T11:13:38;7.30;;;4.82;;
15340;SDS011;7770;52.158;5.372;2023-09-30T11:16:24;10.15;;;5.25;;
15340;SDS011;7770;52.158;5.372;2023-09-30T11:19:11;11.15;;;5.80;;
15340;SDS011;7770;52.158;5.372;2023-09-30T11:21:58;11.48;;;5.07;;
15340;SDS011;7770;52.158;5.372;2023-09-30T11:24:44;7.47;;;4.35;;
15340;SDS011;7770;52.158;5.372;2023-09-30T11:27:31;9.35;;;5.35;;
15340;SDS011;7770;52.158;5.372;2023-09-30T11:30:17;10.43;;;5.10;;
15340;SDS011;7770;52.158;5.372;2023-09-30T11:33:03;9.10;;;5.10;;
15340;SDS011;7770;52.158;5.372;2023-09-30T11:36:03;10.25;;;5.43;;
15340;SDS011;7770;52.158;5.372;2023-09-30T11:38:51;8.48;;;5.05;;
15340;SDS011;7770;52.158;5.372;2023-09-30T11:41:40;11.52;;;5.35;;
15340;SDS011;7770;52.158;5.372;2023-09-30T11:44:29;9.07;;;5.70;;
15340;SDS011;7770;52.158;5.372;2023-09-30T11:47:16;7.45;;;5.53;;
15340;SDS011;7770;52.158;5.372;2023-09-30T11:50:15;9.70;;;5.00;;
15340;SDS011;7770;52.158;5.372;2023-09-30T11:53:01;7.00;;;4.67;;
15340;SDS011;7770;52.158;5.372;2023-09-30T11:55:47;9.73;;;4.87;;
15340;SDS011;7770;52.158;5.372;2023-09-30T11:58:33;7.40;;;5.10;;
15340;SDS011;7770;52.158;5.372;2023-09-30T12:01:19;8.70;;;4.77;;
15340;SDS011;7770;52.158;5.372;2023-09-30T12:04:07;9.37;;;4.80;;
15340;SDS011;7770;52.158;5.372;2023-09-30T12:06:54;6.27;;;4.47;;
15340;SDS011;7770;52.158;5.372;2023-09-30T12:09:40;9.37;;;4.73;;
15340;SDS011;7770;52.158;5.372;2023-09-30T12:12:26;8.93;;;4.67;;
15340;SDS011;7770;52.158;5.372;2023-09-30T12:15:12;8.10;;;4.47;;
15340;SDS011;7770;52.158;5.372;2023-09-30T12:17:59;8.80;;;4.80;;
15340;SDS011;7770;52.158;5.372;2023-09-30T12:20:44;9.93;;;4.73;;
15340;SDS011;7770;52.158;5.372;2023-09-30T12:23:30;8.83;;;5.07;;
15340;SDS011;7770;52.158;5.372;2023-09-30T12:26:16;9.63;;;5.20;;
15340;SDS011;7770;52.158;5.372;2023-09-30T12:29:05;11.73;;;5.63;;
15340;SDS011;7770;52.158;5.372;2023-09-30T12:31:51;9.17;;;5.57;;
15340;SDS011;7770;52.158;5.372;2023-09-30T12:34:38;10.27;;;5.50;;
15340;SDS011;7770;52.158;5.372;2023-09-30T12:37:24;8.57;;;4.53;;
15340;SDS011;7770;52.158;5.372;2023-09-30T12:40:10;7.33;;;4.40;;
15340;SDS011;7770;52.158;5.372;2023-09-30T12:42:56;6.97;;;4.47;;
15340;SDS011;7770;52.158;5.372;2023-09-30T12:45:43;8.00;;;4.60;;
15340;SDS011;7770;52.158;5.372;2023-09-30T12:48:29;8.10;;;4.60;;
15340;SDS011;7770;52.158;5.372;2023-09-30T12:51:15;8.47;;;4.83;;
15340;SDS011;7770;52.158;5.372;2023-09-30T12:54:01;6.23;;;4.07;;
15340;SDS011;7770;52.158;5.372;2023-09-30T12:56:47;8.07;;;4.30;;
15340;SDS011;7770;52.158;5.372;2023-09-30T12:59:33;10.70;;;4.70;;
15340;SDS011;7770;52.158;5.372;2023-09-30T13:02:19;9.30;;;4.67;;
15340;SDS011;7770;52.158;5.372;2023-09-30T13:05:06;9.80;;;4.40;;
15340;SDS011;7770;52.158;5.372;2023-09-30T13:07:52;8.73;;;5.20;;
15340;SDS011;7770;52.158;5.372;2023-09-30T13:10:38;11.17;;;5.23;;
15340;SDS011;7770;52.158;5.372;2023-09-30T13:13:24;9.53;;;5.13;;
15340;SDS011;7770;52.158;5.372;2023-09-30T13:16:11;9.50;;;5.10;;
15340;SDS011;7770;52.158;5.372;2023-09-30T13:18:57;9.67;;;4.97;;
15340;SDS011;7770;52.158;5.372;2023-09-30T13:21:43;7.80;;;5.10;;
15340;SDS011;7770;52.158;5.372;2023-09-30T13:24:29;9.57;;;5.17;;
15340;SDS011;7770;52.158;5.372;2023-09-30T13:27:15;9.90;;;4.80;;
15340;SDS011;7770;52.158;5.372;2023-09-30T13:30:01;11.63;;;5.13;;
15340;SDS011;7770;52.158;5.372;2023-09-30T13:32:48;7.63;;;4.60;;
15340;SDS011;7770;52.158;5.372;2023-09-30T13:35:34;9.47;;;5.50;;
15340;SDS011;7770;52.158;5.372;2023-09-30T13:38:21;8.87;;;5.17;;
15340;SDS011;7770;52.158;5.372;2023-09-30T13:41:07;9.17;;;4.90;;
15340;SDS011;7770;52.158;5.372;2023-09-30T13:43:53;8.80;;;5.40;;
15340;SDS011;7770;52.158;5.372;2023-09-30T13:46:40;8.83;;;5.40;;
15340;SDS011;7770;52.158;5.372;2023-09-30T13:49:27;9.73;;;5.80;;
15340;SDS011;7770;52.158;5.372;2023-09-30T13:52:13;10.43;;;5.50;;
15340;SDS011;7770;52.158;5.372;2023-09-30T13:54:59;12.33;;;6.00;;
15340;SDS011;7770;52.158;5.372;2023-09-30T13:57:46;9.07;;;5.07;;
15340;SDS011;7770;52.158;5.372;2023-09-30T14:00:32;9.37;;;5.30;;
15340;SDS011;7770;52.158;5.372;2023-09-30T14:03:18;10.20;;;5.40;;
15340;SDS011;7770;52.158;5.372;2023-09-30T14:06:08;11.00;;;5.63;;
15340;SDS011;7770;52.158;5.372;2023-09-30T14:08:56;12.23;;;6.13;;
15340;SDS011;7770;52.158;5.372;2023-09-30T14:11:42;12.03;;;6.43;;
15340;SDS011;7770;52.158;5.372;2023-09-30T14:14:30;10.63;;;6.17;;
15340;SDS011;7770;52.158;5.372;2023-09-30T14:17:18;12.20;;;5.67;;
15340;SDS011;7770;52.158;5.372;2023-09-30T14:20:04;12.03;;;6.43;;
15340;SDS011;7770;52.158;5.372;2023-09-30T14:22:51;13.40;;;6.73;;
15340;SDS011;7770;52.158;5.372;2023-09-30T14:25:37;11.00;;;5.90;;
15340;SDS011;7770;52.158;5.372;2023-09-30T14:28:23;12.10;;;5.80;;
15340;SDS011;7770;52.158;5.372;2023-09-30T14:31:09;9.13;;;5.93;;
15340;SDS011;7770;52.158;5.372;2023-09-30T14:33:55;9.43;;;5.67;;
15340;SDS011;7770;52.158;5.372;2023-09-30T14:36:41;10.67;;;6.20;;
15340;SDS011;7770;52.158;5.372;2023-09-30T14:39:27;11.43;;;5.87;;
15340;SDS011;7770;52.158;5.372;2023-09-30T14:42:13;9.77;;;5.30;;
15340;SDS011;7770;52.158;5.372;2023-09-30T14:44:59;11.13;;;5.87;;
15340;SDS011;7770;52.158;5.372;2023-09-30T14:47:45;8.80;;;5.50;;
15340;SDS011;7770;52.158;5.372;2023-09-30T14:50:31;9.97;;;5.50;;
15340;SDS011;7770;52.158;5.372;2023-09-30T14:53:18;11.33;;;5.80;;
15340;SDS011;7770;52.158;5.372;2023-09-30T14:56:14;9.27;;;5.57;;
15340;SDS011;7770;52.158;5.372;2023-09-30T14:59:04;11.57;;;6.07;;
15340;SDS011;7770;52.158;5.372;2023-09-30T15:01:50;10.03;;;5.40;;
15340;SDS011;7770;52.158;5.372;2023-09-30T15:04:38;11.60;;;5.40;;
15340;SDS011;7770;52.158;5.372;2023-09-30T15:07:24;10.43;;;5.67;;
15340;SDS011;7770;52.158;5.372;2023-09-30T15:10:10;9.53;;;5.00;;
15340;SDS011;7770;52.158;5.372;2023-09-30T15:12:56;10.87;;;5.60;;
15340;SDS011;7770;52.158;5.372;2023-09-30T15:15:42;10.33;;;5.20;;
15340;SDS011;7770;52.158;5.372;2023-09-30T15:18:28;9.57;;;4.90;;
15340;SDS011;7770;52.158;5.372;2023-09-30T15:21:15;10.63;;;5.00;;
15340;SDS011;7770;52.158;5.372;2023-09-30T15:24:01;12.37;;;5.63;;
15340;SDS011;7770;52.158;5.372;2023-09-30T15:26:48;7.47;;;4.80;;
15340;SDS011;7770;52.158;5.372;2023-09-30T15:29:34;8.93;;;5.00;;
15340;SDS011;7770;52.158;5.372;2023-09-30T15:32:20;10.70;;;6.20;;
15340;SDS011;7770;52.158;5.372;2023-09-30T15:35:07;8.90;;;6.20;;
15340;SDS011;7770;52.158;5.372;2023-09-30T15:37:53;20.27;;;11.07;;
15340;SDS011;7770;52.158;5.372;2023-09-30T15:40:49;10.43;;;5.53;;
15340;SDS011;7770;52.158;5.372;2023-09-30T15:43:42;12.60;;;5.37;;
15340;SDS011;7770;52.158;5.372;2023-09-30T15:46:28;11.47;;;5.07;;
15340;SDS011;7770;52.158;5.372;2023-09-30T15:49:14;10.00;;;5.03;;
15340;SDS011;7770;52.158;5.372;2023-09-30T15:52:01;8.77;;;5.03;;
15340;SDS011;7770;52.158;5.372;2023-09-30T15:54:48;10.33;;;5.30;;
15340;SDS011;7770;52.158;5.372;2023-09-30T15:57:34;9.00;;;5.33;;
15340;SDS011;7770;52.158;5.372;2023-09-30T16:00:20;11.93;;;5.60;;
15340;SDS011;7770;52.158;5.372;2023-09-30T16:03:06;10.47;;;5.50;;
15340;SDS011;7770;52.158;5.372;2023-09-30T16:05:54;10.23;;;5.43;;
15340;SDS011;7770;52.158;5.372;2023-09-30T16:08:41;9.73;;;4.90;;
15340;SDS011;7770;52.158;5.372;2023-09-30T16:11:27;10.90;;;5.70;;
15340;SDS011;7770;52.158;5.372;2023-09-30T16:14:13;10.17;;;5.43;;
15340;SDS011;7770;52.158;5.372;2023-09-30T16:16:59;11.40;;;5.70;;
15340;SDS011;7770;52.158;5.372;2023-09-30T16:19:45;12.13;;;5.83;;
15340;SDS011;7770;52.158;5.372;2023-09-30T16:22:31;11.33;;;5.60;;
15340;SDS011;7770;52.158;5.372;2023-09-30T16:25:17;10.23;;;5.70;;
15340;SDS011;7770;52.158;5.372;2023-09-30T16:28:04;13.20;;;5.93;;
15340;SDS011;7770;52.158;5.372;2023-09-30T16:30:51;10.23;;;5.90;;
15340;SDS011;7770;52.158;5.372;2023-09-30T16:33:37;11.47;;;6.67;;
15340;SDS011;7770;52.158;5.372;2023-09-30T16:36:23;13.47;;;9.67;;
15340;SDS011;7770;52.158;5.372;2023-09-30T16:39:09;11.93;;;7.10;;
15340;SDS011;7770;52.158;5.372;2023-09-30T16:41:55;12.07;;;7.47;;
15340;SDS011;7770;52.158;5.372;2023-09-30T16:44:41;13.00;;;6.70;;
15340;SDS011;7770;52.158;5.372;2023-09-30T16:47:27;16.47;;;6.70;;
15340;SDS011;7770;52.158;5.372;2023-09-30T16:50:14;14.60;;;6.30;;
15340;SDS011;7770;52.158;5.372;2023-09-30T16:53:00;12.87;;;6.23;;
15340;SDS011;7770;52.158;5.372;2023-09-30T16:55:46;12.80;;;6.73;;
15340;SDS011;7770;52.158;5.372;2023-09-30T16:58:32;11.43;;;7.07;;
15340;SDS011;7770;52.158;5.372;2023-09-30T17:01:18;8.73;;;6.13;;
15340;SDS011;7770;52.158;5.372;2023-09-30T17:04:06;10.40;;;6.30;;